Nearby METAR Reports

 

KDWH - Houston/Dw Hooks, Texas, USA
Distance from station: WNW 3mi, 6km
Updated: 01/27/2020 2:53pm
Few Clouds
Few Clouds
 Wind from E
Wind: E 9 mph , 15 km/h
Temperature: 64°F , 18°C
Dew Point: 52°F , 11°C
Humidity: 64%
Barometer: 29.99 inHg , 1015.6 hPa
Clouds: Few Clouds
Visibility: 10 miles , 16 km
Cloud details: Few Clouds 2100 ft
2020/01/27 20:53 KDWH 272053Z 10008KT 050V120 10SM FEW021 18/11 A2999 RMK AO2 SLP153 T01830111 56026
KIAH - Houston/Intnl, Texas, USA
Distance from station: ESE 9mi, 14km
Updated: 01/27/2020 2:53pm
Mostly cloudy
Mostly cloudy
 Wind from E
Wind: E 10 mph , 17 km/h
Temperature: 61°F , 16°C
Dew Point: 52°F , 11°C
Humidity: 72%
Barometer: 30.00 inHg , 1015.9 hPa
Clouds: Mostly cloudy
Visibility: 10 miles , 16 km
Cloud details: Mostly cloudy 1500 ft
2020/01/27 20:53 KIAH 272053Z 09009KT 10SM BKN015 16/11 A3000 RMK AO2 SLP158 T01610106 56021
 
KCXO - Conroe, Texas, USA
Distance from station: NNE 21mi, 34km
Updated: 01/27/2020 2:53pm
Overcast
Overcast
 Wind from ESE
Wind: ESE 5 mph , 7 km/h
Temperature: 57°F , 14°C
Dew Point: 52°F , 11°C
Humidity: 82%
Barometer: 30.00 inHg , 1015.9 hPa
Clouds: Overcast
Visibility: 10 miles , 16 km
Cloud details: Overcast 900 ft
2020/01/27 20:53 KCXO 272053Z 11004KT 10SM OVC009 14/11 A3000 RMK AO2 SLP159 T01390111 56024
KMCJ - Houston/Univ, Texas, USA
Distance from station: SSE 24mi, 39km
Updated: 01/27/2020 3:15pm
Few Clouds
Few Clouds
 Wind from varies
Wind: varies 7 mph , 11 km/h
Temperature: 70°F , 21°C
Dew Point: 52°F , 11°C
Humidity: 53%
Barometer: 29.98 inHg , 1015.2 hPa
Clouds: Few Clouds
Visibility: 8 miles , 13 km
Cloud details: Few Clouds 2600 ft
2020/01/27 21:15 KMCJ 272115Z AUTO VRB06KT 8SM FEW026 21/11 A2998 RMK A01
 
KTME - Houston Exec, Texas, USA
Distance from station: SW 30mi, 48km
Updated: 01/27/2020 3:15pm
Overcast
Overcast
 Wind from varies
Wind: varies 5 mph , 7 km/h
Temperature: 68°F , 20°C
Dew Point: 55°F , 13°C
Humidity: 64%
Barometer: 29.98 inHg , 1015.2 hPa
Clouds: Overcast
Visibility: 8 miles , 13 km
Cloud details: Overcast 2600 ft
2020/01/27 21:15 KTME 272115Z AUTO VRB04KT 8SM OVC026 20/13 A2998 RMK AO2
KHOU - Houston/Hobby, Texas, USA
Distance from station: SSE 32mi, 51km
Updated: 01/27/2020 2:53pm
Partly cloudy
Partly cloudy
 Wind from E
Wind: E 13 mph , 20 km/h
Temperature: 63°F , 17°C
Dew Point: 52°F , 11°C
Humidity: 68%
Barometer: 30.00 inHg , 1015.9 hPa
Clouds: Partly cloudy
Visibility: 10 miles , 16 km
Cloud details: Partly cloudy 2500 ft
2020/01/27 20:53 KHOU 272053Z 10011KT 10SM SCT025 17/11 A3000 RMK AO2 SLP162 T01720111 56019
 
KSGR - Houston/Sugar La, Texas, USA
Distance from station: SSW 32mi, 51km
Updated: 01/27/2020 2:53pm
Few Clouds
Few Clouds
 Wind from calm
Wind: Calm
Temperature: 66°F , 19°C
Dew Point: 55°F , 13°C
Humidity: 68%
Barometer: 29.98 inHg , 1015.2 hPa
Clouds: Few Clouds
Visibility: 10 miles , 16 km
Cloud details: Few Clouds 2700 ft
2020/01/27 20:53 KSGR 272053Z 00000KT 10SM FEW027 19/13 A2998 RMK AO2 SLP152 T01940128 56027
K6R3 - Cleveland Muni, Texas, USA
Distance from station: NE 36mi, 58km
Updated: 01/27/2020 3:15pm
Overcast
Overcast
 Wind from calm
Wind: Calm
Temperature: 54°F , 12°C
Dew Point: 50°F , 10°C
Humidity: 88%
Barometer: 30.02 inHg , 1016.6 hPa
Clouds: Overcast
Visibility: 7 miles , 11 km
Cloud details: Overcast 500 ft
2020/01/27 21:15 K6R3 272115Z AUTO 00000KT 7SM OVC005 12/10 A3002 RMK AO2 T01170103
 
KAXH - Houston/Southwst, Texas, USA
Distance from station: S 37mi, 60km
Updated: 01/27/2020 3:15pm
Clear
Clear
 Wind from calm
Wind: Calm
Temperature: 66°F , 19°C
Dew Point: 54°F , 12°C
Humidity: 64%
Barometer: 29.99 inHg , 1015.6 hPa
Clouds: Clear
Visibility: 10 miles , 16 km
2020/01/27 21:15 KAXH 272115Z AUTO 00000KT 10SM CLR 19/12 A2999 RMK AO2 T01890123
KEFD - Houston/Ellingto, Texas, USA
Distance from station: SSE 37mi, 60km
Updated: 01/27/2020 2:50pm
Overcast
Overcast
 Wind from E
Wind: E 5 mph , 7 km/h
Temperature: 57°F , 14°C
Dew Point: 52°F , 11°C
Humidity: 82%
Barometer: 30.01 inHg , 1016.3 hPa
Clouds: Overcast
Visibility: 7 miles , 11 km
Cloud details: Overcast 1500 ft
2020/01/27 20:50 KEFD 272050Z 10004KT 7SM OVC015 14/11 A3001
 
KLVJ - Houston, Texas, USA
Distance from station: SSE 40mi, 64km
Updated: 01/27/2020 2:53pm
Clear
Clear
 Wind from E
Wind: E 10 mph , 17 km/h
Temperature: 63°F , 17°C
Dew Point: 52°F , 11°C
Humidity: 68%
Barometer: 30.02 inHg , 1016.6 hPa
Clouds: Clear
Visibility: 9 miles , 14 km
2020/01/27 20:53 KLVJ 272053Z AUTO 08009KT 9SM CLR 17/11 A3002 RMK AO2 SLP163 T01670111 56018
KUTS - Huntsville, Texas, USA
Distance from station: N 48mi, 78km
Updated: 01/27/2020 3:20pm
Overcast
Overcast
 Wind from SSE
Wind: SSE 5 mph , 7 km/h
Temperature: 57°F , 14°C
Dew Point: 52°F , 11°C
Humidity: 82%
Barometer: 29.99 inHg , 1015.6 hPa
Clouds: Overcast
Visibility: 10 miles , 16 km
Cloud details: Overcast 1000 ft
2020/01/27 21:20 KUTS 272120Z AUTO 15004KT 10SM OVC010 14/11 A2999 RMK AO2 T01390106